Time;durP1;ratioP1;P1;durP2;ratioP2;P2;SDS_P1;SDS_P2;PMS_P1;PMS_P2;Temp;Humidity;BMP_temperature;BMP_pressure;BME280_temperature;BME280_humidity;BME280_pressure;Samples;Min_cycle;Max_cycle;Signal;HPM_P1;HPM_P2
2023/05/04 00:00:49;;;;;;;3.60;0.95;;;17.40;95.70;;;;;;5071033;28;20192;-77
2023/05/04 00:03:20;;;;;;;5.45;1.00;;;17.60;96.30;;;;;;5071184;28;20192;-77
2023/05/04 00:05:51;;;;;;;2.00;1.00;;;17.60;95.20;;;;;;5078857;28;20562;-76
2023/05/04 00:08:22;;;;;;;2.33;0.80;;;17.60;96.20;;;;;;5084840;28;20638;-75
2023/05/04 00:10:54;;;;;;;2.05;0.93;;;17.80;96.70;;;;;;5071728;28;20196;-76
2023/05/04 00:13:25;;;;;;;3.15;0.80;;;17.90;95.70;;;;;;5071231;28;20212;-76
2023/05/04 00:15:58;;;;;;;2.80;0.90;;;18.00;94.70;;;;;;5071081;28;20214;-75
2023/05/04 00:18:29;;;;;;;3.30;0.90;;;18.10;94.20;;;;;;5070807;28;20229;-76
2023/05/04 00:21:01;;;;;;;3.53;0.80;;;18.00;94.10;;;;;;5070834;28;20200;-76
2023/05/04 00:23:32;;;;;;;4.05;1.05;;;18.20;94.10;;;;;;5071874;28;20207;-76
2023/05/04 00:26:03;;;;;;;3.60;0.68;;;18.20;93.90;;;;;;5070943;28;20196;-77
2023/05/04 00:28:34;;;;;;;2.22;0.63;;;18.20;93.50;;;;;;5070530;28;20314;-76
2023/05/04 00:31:07;;;;;;;3.53;0.73;;;18.30;93.60;;;;;;5070624;28;20674;-77
2023/05/04 00:33:39;;;;;;;2.40;0.90;;;18.50;93.90;;;;;;5070418;28;20207;-76
2023/05/04 00:36:10;;;;;;;1.30;0.75;;;18.60;93.40;;;;;;5069872;28;20199;-77
2023/05/04 00:38:51;;;;;;;2.67;0.90;;;18.60;93.00;;;;;;5072488;28;20219;-78
2023/05/04 00:41:23;;;;;;;2.42;0.80;;;18.40;92.60;;;;;;5071210;28;20200;-77
2023/05/04 00:43:54;;;;;;;3.17;0.60;;;18.50;93.40;;;;;;5070822;28;20203;-77
2023/05/04 00:46:28;;;;;;;2.25;0.60;;;18.50;93.60;;;;;;5070366;28;20196;-76
2023/05/04 00:49:01;;;;;;;3.50;0.80;;;18.70;93.30;;;;;;5070658;28;20204;-75
2023/05/04 00:51:32;;;;;;;1.42;0.57;;;18.80;92.60;;;;;;5068991;28;20200;-76
2023/05/04 00:54:03;;;;;;;2.90;0.70;;;18.90;93.40;;;;;;5069904;28;20226;-75
2023/05/04 00:56:39;;;;;;;2.70;0.70;;;19.00;93.00;;;;;;5069808;28;20196;-76
2023/05/04 00:59:12;;;;;;;1.23;0.50;;;19.10;92.30;;;;;;5069503;28;20302;-75
2023/05/04 01:01:45;;;;;;;2.30;0.68;;;19.20;92.20;;;;;;5070181;28;20200;-75
2023/05/04 01:04:17;;;;;;;2.92;0.85;;;19.20;91.80;;;;;;5069511;28;20212;-75
2023/05/04 01:06:54;;;;;;;1.90;0.75;;;19.10;92.10;;;;;;5069898;28;20222;-76
2023/05/04 01:09:33;;;;;;;2.95;0.82;;;19.30;92.60;;;;;;5070128;28;20198;-75
2023/05/04 01:12:08;;;;;;;3.83;0.60;;;19.30;92.40;;;;;;5070062;28;20199;-76
2023/05/04 01:14:41;;;;;;;0.93;0.45;;;19.40;92.20;;;;;;5070510;28;20249;-76
2023/05/04 01:17:15;;;;;;;2.13;0.60;;;19.40;91.80;;;;;;5070060;28;20200;-76
2023/05/04 01:19:46;;;;;;;2.35;0.60;;;19.30;91.90;;;;;;5068238;28;20227;-75
2023/05/04 01:22:19;;;;;;;2.35;0.70;;;19.50;92.50;;;;;;5071671;28;20193;-76
2023/05/04 01:24:51;;;;;;;2.72;0.80;;;19.60;92.40;;;;;;5090364;28;20226;-75
2023/05/04 01:27:28;;;;;;;2.83;0.85;;;19.60;91.40;;;;;;5090603;28;20195;-76
2023/05/04 01:30:04;;;;;;;2.67;0.70;;;19.70;92.30;;;;;;5090079;28;20238;-76
2023/05/04 01:32:36;;;;;;;3.22;1.00;;;20.00;92.20;;;;;;5073293;28;20681;-77
2023/05/04 01:35:07;;;;;;;2.13;0.80;;;20.10;92.00;;;;;;5073767;28;20200;-76
2023/05/04 01:37:40;;;;;;;2.60;0.95;;;20.00;91.50;;;;;;5074030;28;20199;-77
2023/05/04 01:40:12;;;;;;;3.88;0.80;;;20.20;91.70;;;;;;5074172;28;20220;-77
2023/05/04 01:42:43;;;;;;;1.88;0.73;;;20.20;91.60;;;;;;5076503;28;20200;-75
2023/05/04 01:45:15;;;;;;;1.95;0.63;;;20.10;90.70;;;;;;5078255;28;20222;-76
2023/05/04 01:47:46;;;;;;;3.88;0.95;;;20.20;91.20;;;;;;5077774;28;20203;-76
2023/05/04 01:50:17;;;;;;;3.55;0.80;;;20.30;91.80;;;;;;5089967;28;20630;-77
2023/05/04 01:52:51;;;;;;;2.65;0.68;;;20.30;91.30;;;;;;5073948;28;20227;-76
2023/05/04 01:55:22;;;;;;;2.25;0.90;;;20.20;91.70;;;;;;5074192;28;20196;-77
2023/05/04 01:57:53;;;;;;;3.30;0.80;;;20.20;91.80;;;;;;5074306;28;20566;-76
2023/05/04 02:00:24;;;;;;;2.42;0.88;;;20.20;91.70;;;;;;5073915;28;20247;-77
2023/05/04 02:02:55;;;;;;;2.55;0.60;;;20.40;91.90;;;;;;5073962;28;20207;-76
2023/05/04 02:05:26;;;;;;;0.88;0.50;;;20.50;92.10;;;;;;5074334;28;20204;-74
2023/05/04 02:07:59;;;;;;;1.77;0.60;;;20.50;91.40;;;;;;5073775;28;20196;-76
2023/05/04 02:10:30;;;;;;;2.85;0.60;;;20.60;91.80;;;;;;5073150;28;20207;-76
2023/05/04 02:13:01;;;;;;;1.95;0.52;;;20.70;92.10;;;;;;5073363;28;20231;-77
2023/05/04 02:15:32;;;;;;;0.63;0.35;;;20.70;91.70;;;;;;5073729;28;20559;-77
2023/05/04 02:18:03;;;;;;;1.00;0.52;;;20.80;91.60;;;;;;5073526;28;20207;-76
2023/05/04 02:20:34;;;;;;;1.63;0.57;;;20.90;91.50;;;;;;5073347;28;20710;-75
2023/05/04 02:23:08;;;;;;;1.52;0.50;;;21.00;91.80;;;;;;5072761;28;20291;-74
2023/05/04 02:25:42;;;;;;;2.45;0.50;;;20.80;91.60;;;;;;5073068;28;20192;-76
2023/05/04 02:28:13;;;;;;;0.85;0.40;;;20.90;91.20;;;;;;5072597;28;20223;-77
2023/05/04 02:30:45;;;;;;;3.20;1.30;;;20.90;91.60;;;;;;5072903;28;20658;-76
2023/05/04 02:33:16;;;;;;;2.58;0.90;;;21.00;92.00;;;;;;5073041;28;20200;-76
2023/05/04 02:35:47;;;;;;;1.27;0.57;;;20.90;92.00;;;;;;5072853;28;20196;-76
2023/05/04 02:38:20;;;;;;;1.70;0.80;;;21.10;92.40;;;;;;5072411;28;20203;-76
2023/05/04 02:40:51;;;;;;;3.50;0.85;;;21.10;92.40;;;;;;5053257;28;20220;-77
2023/05/04 02:43:22;;;;;;;3.50;1.00;;;21.20;92.20;;;;;;5052070;28;20197;-76
2023/05/04 02:45:53;;;;;;;2.75;1.48;;;21.20;92.00;;;;;;5052570;28;20200;-75
2023/05/04 02:48:25;;;;;;;1.73;0.90;;;21.20;91.70;;;;;;5052795;28;20197;-77
2023/05/04 02:50:57;;;;;;;3.08;0.85;;;21.30;92.00;;;;;;5061707;28;20196;-76
2023/05/04 02:53:30;;;;;;;1.75;0.55;;;21.30;92.00;;;;;;5072287;28;20670;-75
2023/05/04 02:56:01;;;;;;;1.50;0.65;;;21.40;92.10;;;;;;5072850;28;20211;-76
2023/05/04 02:58:32;;;;;;;1.52;0.70;;;21.40;91.70;;;;;;5072563;28;20578;-77
2023/05/04 03:01:03;;;;;;;1.73;0.60;;;21.40;92.10;;;;;;5072579;28;20713;-76
2023/05/04 03:03:34;;;;;;;1.98;0.85;;;21.50;91.40;;;;;;5072398;28;20192;-76
2023/05/04 03:06:05;;;;;;;2.42;0.63;;;21.50;91.30;;;;;;5072224;28;20575;-77
2023/05/04 03:08:38;;;;;;;2.22;0.40;;;21.50;91.30;;;;;;5072239;28;20208;-80
2023/05/04 03:11:09;;;;;;;2.60;0.50;;;21.50;91.20;;;;;;5072110;28;20738;-78
2023/05/04 03:13:40;;;;;;;1.33;0.50;;;21.60;91.60;;;;;;5072973;28;20211;-78
2023/05/04 03:16:11;;;;;;;2.08;0.55;;;21.70;91.90;;;;;;5071639;28;20225;-77
2023/05/04 03:18:42;;;;;;;1.58;0.40;;;21.70;91.60;;;;;;5071469;28;20203;-78
2023/05/04 03:21:13;;;;;;;1.20;0.55;;;21.70;91.70;;;;;;5072079;28;20227;-78
2023/05/04 03:23:46;;;;;;;2.28;0.63;;;21.60;91.60;;;;;;5071996;28;20199;-78
2023/05/04 03:26:17;;;;;;;0.98;0.32;;;21.50;91.20;;;;;;5073586;28;20196;-78
2023/05/04 03:28:48;;;;;;;2.70;0.50;;;21.50;91.40;;;;;;5083186;28;20219;-75
2023/05/04 03:31:19;;;;;;;2.10;0.50;;;21.50;92.20;;;;;;5089801;28;20206;-77
2023/05/04 03:33:50;;;;;;;2.65;0.63;;;21.50;92.10;;;;;;5091791;28;20191;-77
2023/05/04 03:36:21;;;;;;;2.13;0.50;;;21.50;92.10;;;;;;5074847;28;20203;-77
2023/05/04 03:38:54;;;;;;;1.45;0.43;;;21.50;92.30;;;;;;5070510;28;20204;-78
2023/05/04 03:41:25;;;;;;;1.30;0.60;;;21.40;92.10;;;;;;5072085;28;20223;-78
2023/05/04 03:43:57;;;;;;;2.45;0.95;;;21.40;92.20;;;;;;5071038;28;20556;-77
2023/05/04 03:46:28;;;;;;;2.78;0.75;;;21.40;92.30;;;;;;5077361;28;20200;-77
2023/05/04 03:48:59;;;;;;;2.13;0.70;;;21.40;92.40;;;;;;5074439;28;20222;-78
2023/05/04 03:51:30;;;;;;;1.02;0.50;;;21.40;92.50;;;;;;5071548;28;20203;-77
2023/05/04 03:54:03;;;;;;;3.28;0.65;;;21.30;92.50;;;;;;5070914;28;20211;-76
2023/05/04 03:56:34;;;;;;;1.67;0.40;;;21.40;93.00;;;;;;5071146;28;20196;-76
2023/05/04 03:59:05;;;;;;;2.58;0.60;;;21.30;92.90;;;;;;5071228;28;20191;-76
2023/05/04 04:01:36;;;;;;;1.60;0.50;;;21.30;94.00;;;;;;5071571;28;20224;-76
2023/05/04 04:04:08;;;;;;;3.60;1.05;;;21.30;93.60;;;;;;5072467;28;20669;-76
2023/05/04 04:06:39;;;;;;;1.95;0.80;;;21.30;93.50;;;;;;5070964;28;20206;-77
2023/05/04 04:09:12;;;;;;;4.05;0.90;;;21.30;94.30;;;;;;5071410;28;20207;-77
2023/05/04 04:11:43;;;;;;;2.20;0.70;;;21.30;94.00;;;;;;5070988;28;20203;-76
2023/05/04 04:14:14;;;;;;;2.20;0.80;;;21.20;93.90;;;;;;5071017;28;20315;-77
2023/05/04 04:16:45;;;;;;;1.65;0.70;;;21.20;94.30;;;;;;5071440;28;20200;-75
2023/05/04 04:19:16;;;;;;;4.30;0.80;;;21.30;95.10;;;;;;5071503;28;20206;-76
2023/05/04 04:21:47;;;;;;;1.50;0.50;;;21.20;95.20;;;;;;5072288;28;20242;-77
2023/05/04 04:24:20;;;;;;;0.63;0.25;;;21.30;94.80;;;;;;5070991;28;20207;-76
2023/05/04 04:26:51;;;;;;;2.42;0.50;;;21.20;95.00;;;;;;5071580;28;20654;-76
2023/05/04 04:29:23;;;;;;;2.28;0.57;;;21.20;94.90;;;;;;5071380;28;20239;-77
2023/05/04 04:31:54;;;;;;;3.15;0.50;;;21.10;95.10;;;;;;5071700;28;20720;-77
2023/05/04 04:34:26;;;;;;;0.90;0.40;;;21.10;95.20;;;;;;5075767;28;20188;-74
2023/05/04 04:36:57;;;;;;;1.77;0.47;;;21.00;95.70;;;;;;5060195;28;20265;-76
2023/05/04 04:39:31;;;;;;;1.23;0.40;;;21.00;95.70;;;;;;5069606;28;20227;-76
2023/05/04 04:42:02;;;;;;;1.38;0.40;;;20.90;95.90;;;;;;5070581;28;20203;-76
2023/05/04 04:44:34;;;;;;;1.08;0.40;;;20.90;95.80;;;;;;5071035;28;20523;-75
2023/05/04 04:47:05;;;;;;;1.55;0.40;;;21.00;96.20;;;;;;5070555;28;20204;-76
2023/05/04 04:49:36;;;;;;;1.55;0.50;;;21.00;96.20;;;;;;5070793;28;20226;-76
2023/05/04 04:52:07;;;;;;;2.15;0.45;;;20.90;96.20;;;;;;5071122;28;20207;-76
2023/05/04 04:54:40;;;;;;;2.42;0.93;;;20.90;96.60;;;;;;5074371;28;20207;-77
2023/05/04 04:57:11;;;;;;;1.40;0.50;;;20.80;97.10;;;;;;5073323;28;20200;-77
2023/05/04 04:59:42;;;;;;;2.75;0.60;;;20.90;97.40;;;;;;5073496;28;20567;-76
2023/05/04 05:02:14;;;;;;;2.25;0.63;;;20.90;97.30;;;;;;5072343;28;20235;-77
2023/05/04 05:04:45;;;;;;;2.15;0.60;;;20.80;96.90;;;;;;5072456;28;20269;-76
2023/05/04 05:07:16;;;;;;;2.17;0.50;;;20.70;97.20;;;;;;5071252;28;20583;-77
2023/05/04 05:09:49;;;;;;;1.15;0.60;;;20.70;97.80;;;;;;5072020;28;20622;-76
2023/05/04 05:12:20;;;;;;;0.90;0.57;;;20.70;97.60;;;;;;5072014;28;20203;-77
2023/05/04 05:14:51;;;;;;;1.48;0.52;;;20.70;97.80;;;;;;5072028;28;20196;-77
2023/05/04 05:17:23;;;;;;;1.88;0.50;;;20.70;98.40;;;;;;5072205;28;20203;-76
2023/05/04 05:19:56;;;;;;;3.22;0.55;;;20.70;99.10;;;;;;5072421;28;20192;-77
2023/05/04 05:22:27;;;;;;;1.65;0.60;;;20.70;98.90;;;;;;5070519;28;20204;-77
2023/05/04 05:25:00;;;;;;;1.70;0.50;;;20.70;99.80;;;;;;5068820;28;20203;-76
2023/05/04 05:27:31;;;;;;;1.83;0.60;;;20.70;99.70;;;;;;5071770;28;20192;-77
2023/05/04 05:30:03;;;;;;;2.92;0.57;;;20.70;99.90;;;;;;5072398;28;20237;-76
2023/05/04 05:32:35;;;;;;;1.42;0.50;;;20.70;99.90;;;;;;5072570;28;20192;-76
2023/05/04 05:35:06;;;;;;;2.10;0.45;;;20.70;99.90;;;;;;5072089;28;20635;-77
2023/05/04 05:37:37;;;;;;;1.40;0.40;;;20.80;99.90;;;;;;5072414;28;20196;-77
2023/05/04 05:40:12;;;;;;;1.30;0.43;;;20.90;99.90;;;;;;5073478;28;20228;-76
2023/05/04 05:42:43;;;;;;;3.40;0.60;;;20.80;99.70;;;;;;5075141;28;20196;-76
2023/05/04 05:45:15;;;;;;;3.08;0.60;;;20.90;99.50;;;;;;5077610;28;20258;-76
2023/05/04 05:47:46;;;;;;;2.58;0.60;;;20.90;98.90;;;;;;5056923;28;20203;-76
2023/05/04 05:50:17;;;;;;;1.85;0.50;;;21.00;98.50;;;;;;5051358;28;20231;-76
2023/05/04 05:52:48;;;;;;;1.55;0.50;;;20.90;98.90;;;;;;5062721;28;20572;-76
2023/05/04 05:55:21;;;;;;;1.25;0.50;;;20.80;99.00;;;;;;5071574;28;20662;-77
2023/05/04 05:57:52;;;;;;;1.63;0.50;;;20.80;99.40;;;;;;5071545;28;20196;-76
2023/05/04 06:00:25;;;;;;;3.67;0.60;;;20.90;99.90;;;;;;5071663;28;20227;-76
2023/05/04 06:02:56;;;;;;;1.17;0.47;;;21.00;99.20;;;;;;5071788;28;20204;-77
2023/05/04 06:05:27;;;;;;;2.60;0.60;;;21.10;99.90;;;;;;5070623;28;20242;-77
2023/05/04 06:07:58;;;;;;;2.30;0.40;;;21.30;99.80;;;;;;5073305;28;20200;-77
2023/05/04 06:10:31;;;;;;;0.75;0.60;;;21.30;99.90;;;;;;5070824;28;20222;-77
2023/05/04 06:13:02;;;;;;;1.92;0.52;;;21.40;99.70;;;;;;5072158;28;20200;-77
2023/05/04 06:15:33;;;;;;;2.42;0.70;;;21.40;99.90;;;;;;5070939;28;20204;-78
2023/05/04 06:18:04;;;;;;;1.27;0.50;;;21.60;99.70;;;;;;5071097;28;20198;-75
2023/05/04 06:20:35;;;;;;;2.22;0.65;;;21.60;99.50;;;;;;5085511;28;20563;-77
2023/05/04 06:23:06;;;;;;;1.85;0.77;;;21.60;99.40;;;;;;5090670;28;20203;-78
2023/05/04 06:25:39;;;;;;;2.42;0.65;;;21.70;99.40;;;;;;5091593;28;20196;-76
2023/05/04 06:28:10;;;;;;;2.63;0.40;;;21.70;99.50;;;;;;5087740;28;20219;-77
2023/05/04 06:30:43;;;;;;;2.50;0.70;;;21.60;99.50;;;;;;5075622;28;20204;-77
2023/05/04 06:33:14;;;;;;;1.58;0.70;;;21.60;99.60;;;;;;5075435;28;20209;-76
2023/05/04 06:35:46;;;;;;;4.22;1.10;;;21.30;99.90;;;;;;5075575;28;20203;-76
2023/05/04 06:38:17;;;;;;;1.92;0.70;;;21.20;99.90;;;;;;5077281;28;20204;-76
2023/05/04 06:40:52;;;;;;;2.33;0.70;;;21.00;99.90;;;;;;5075291;28;20231;-76
2023/05/04 06:43:23;;;;;;;1.63;0.60;;;21.10;99.90;;;;;;5075136;28;20211;-77
2023/05/04 06:45:54;;;;;;;3.10;0.80;;;20.90;99.90;;;;;;5075134;28;20203;-77
2023/05/04 06:48:26;;;;;;;3.78;0.80;;;20.90;99.90;;;;;;5082479;28;20207;-75
2023/05/04 06:50:57;;;;;;;2.05;0.65;;;20.80;99.90;;;;;;5074537;28;20267;-76
2023/05/04 06:53:28;;;;;;;3.83;0.80;;;20.60;99.90;;;;;;5074267;28;20257;-77
2023/05/04 06:56:01;;;;;;;3.28;0.60;;;20.50;99.90;;;;;;5094930;28;20666;-78
2023/05/04 06:58:32;;;;;;;3.22;1.23;;;20.40;99.90;;;;;;5094481;28;20658;-76
2023/05/04 07:01:03;;;;;;;1.92;0.80;;;20.30;99.90;;;;;;5094406;28;20254;-77
2023/05/04 07:03:34;;;;;;;3.10;1.00;;;20.20;99.90;;;;;;5094058;28;20198;-78
2023/05/04 07:06:05;;;;;;;4.85;1.50;;;20.20;99.90;;;;;;5093989;28;20206;-75
2023/05/04 07:08:37;;;;;;;4.60;1.35;;;20.00;99.90;;;;;;5078649;28;20577;-76
2023/05/04 07:11:11;;;;;;;3.45;1.60;;;20.00;99.90;;;;;;5074677;28;20204;-76
2023/05/04 07:13:42;;;;;;;3.83;1.50;;;20.00;99.90;;;;;;5073119;28;20192;-77
2023/05/04 07:16:13;;;;;;;5.78;1.33;;;19.90;99.90;;;;;;5072752;28;20291;-77
2023/05/04 07:18:45;;;;;;;8.13;1.70;;;19.80;99.90;;;;;;5072945;28;20200;-78
2023/05/04 07:21:16;;;;;;;6.88;1.67;;;19.80;99.90;;;;;;5073079;28;20314;-77
2023/05/04 07:23:47;;;;;;;3.42;1.95;;;19.80;99.90;;;;;;5072422;28;20435;-76
2023/05/04 07:26:20;;;;;;;6.28;2.13;;;19.70;99.90;;;;;;5072778;28;20631;-77
2023/05/04 07:28:51;;;;;;;6.15;1.92;;;19.60;99.90;;;;;;5072900;28;20236;-77
2023/05/04 07:31:23;;;;;;;3.83;1.40;;;19.60;99.90;;;;;;5072317;28;20195;-75
2023/05/04 07:33:54;;;;;;;3.88;1.08;;;19.60;99.90;;;;;;5073005;28;20200;-77
2023/05/04 07:36:26;;;;;;;4.80;1.10;;;19.60;99.90;;;;;;5073285;28;20282;-76
2023/05/04 07:38:57;;;;;;;6.32;1.20;;;19.60;99.90;;;;;;5072075;28;20584;-76
2023/05/04 07:41:31;;;;;;;1.95;1.00;;;19.50;99.90;;;;;;5072416;28;20277;-76
2023/05/04 07:44:04;;;;;;;3.97;1.70;;;19.50;99.90;;;;;;5072268;28;20200;-75
2023/05/04 07:46:35;;;;;;;6.10;2.40;;;19.50;99.90;;;;;;5074378;28;20210;-76
2023/05/04 07:49:06;;;;;;;5.03;1.70;;;19.50;99.90;;;;;;5076999;28;20200;-76
2023/05/04 07:51:38;;;;;;;2.40;1.38;;;19.50;99.90;;;;;;5074832;28;20192;-75
2023/05/04 07:54:09;;;;;;;3.10;1.30;;;19.40;99.90;;;;;;5083333;28;20218;-78
2023/05/04 07:56:42;;;;;;;6.07;1.52;;;19.40;99.90;;;;;;5098430;28;20196;-78
2023/05/04 07:59:13;;;;;;;5.95;2.00;;;19.40;99.90;;;;;;5091983;28;20206;-77
2023/05/04 08:01:45;;;;;;;5.28;1.40;;;19.40;99.90;;;;;;5088871;28;20234;-76
2023/05/04 08:04:16;;;;;;;4.95;2.17;;;19.40;99.90;;;;;;5071779;28;20207;-77
2023/05/04 08:06:48;;;;;;;7.72;3.78;;;19.40;99.90;;;;;;5072071;28;20208;-78
2023/05/04 08:09:19;;;;;;;4.70;1.73;;;19.30;99.90;;;;;;5071106;28;20604;-77
2023/05/04 08:11:52;;;;;;;4.13;1.60;;;19.30;99.90;;;;;;5051812;28;20209;-78
2023/05/04 08:14:23;;;;;;;2.92;1.77;;;19.20;99.90;;;;;;5052018;28;20222;-77
2023/05/04 08:16:54;;;;;;;7.57;3.45;;;19.20;99.90;;;;;;5052511;28;20203;-76
2023/05/04 08:19:26;;;;;;;7.82;3.15;;;19.20;99.90;;;;;;5074976;28;20199;-76
2023/05/04 08:21:57;;;;;;;5.75;3.35;;;19.20;99.90;;;;;;5092033;28;20223;-77
2023/05/04 08:24:28;;;;;;;5.10;2.83;;;19.20;99.90;;;;;;5071175;28;20196;-77
2023/05/04 08:27:01;;;;;;;4.50;1.95;;;19.10;99.90;;;;;;5071274;28;20200;-76
2023/05/04 08:29:35;;;;;;;4.10;2.95;;;19.10;99.90;;;;;;5071209;28;20230;-77
2023/05/04 08:32:07;;;;;;;3.70;2.08;;;19.00;99.90;;;;;;5071771;28;20206;-78
2023/05/04 08:34:38;;;;;;;4.85;1.88;;;18.90;99.90;;;;;;5071082;28;20548;-78
2023/05/04 08:37:09;;;;;;;3.55;1.70;;;19.00;99.90;;;;;;5071608;28;20279;-79
2023/05/04 08:39:40;;;;;;;3.35;1.80;;;19.00;99.90;;;;;;5071426;28;20624;-79
2023/05/04 08:42:13;;;;;;;4.30;1.65;;;19.00;99.90;;;;;;5071043;28;20227;-78
2023/05/04 08:44:44;;;;;;;3.03;1.17;;;19.00;99.90;;;;;;5072854;28;20207;-79
2023/05/04 08:47:17;;;;;;;5.32;2.05;;;19.00;99.90;;;;;;5073469;28;20564;-79
2023/05/04 08:49:48;;;;;;;5.13;2.25;;;19.00;99.90;;;;;;5073173;28;20217;-78
2023/05/04 08:52:20;;;;;;;8.57;3.20;;;18.90;99.90;;;;;;5053306;28;20200;-76
2023/05/04 08:54:53;;;;;;;7.13;3.10;;;18.90;99.90;;;;;;5064689;28;20204;-75
2023/05/04 08:57:27;;;;;;;9.45;3.65;;;18.90;99.90;;;;;;5071349;28;20196;-75
2023/05/04 08:59:58;;;;;;;13.20;5.75;;;18.90;99.90;;;;;;5071350;28;20183;-74
2023/05/04 09:02:31;;;;;;;12.13;5.13;;;18.90;99.90;;;;;;5080279;28;20231;-75
2023/05/04 09:05:06;;;;;;;15.38;6.65;;;18.80;99.90;;;;;;5071310;28;20253;-76
2023/05/04 09:07:37;;;;;;;12.30;5.60;;;18.80;99.90;;;;;;5070194;28;20200;-75
2023/05/04 09:10:10;;;;;;;22.27;6.63;;;18.80;99.90;;;;;;5076792;28;20206;-76
2023/05/04 09:12:43;;;;;;;15.20;4.88;;;18.80;99.90;;;;;;5091365;28;20276;-75
2023/05/04 09:15:20;;;;;;;9.05;4.50;;;18.70;99.90;;;;;;5091660;28;20191;-76
2023/05/04 09:17:59;;;;;;;8.05;4.05;;;18.70;99.90;;;;;;5090568;28;20206;-75
2023/05/04 09:20:31;;;;;;;8.10;4.35;;;18.70;99.90;;;;;;5090986;28;20202;-75
2023/05/04 09:23:06;;;;;;;8.80;4.05;;;18.70;99.90;;;;;;5082536;28;20230;-76
2023/05/04 09:25:47;;;;;;;10.55;3.70;;;18.70;99.90;;;;;;5070222;28;20195;-75
2023/05/04 09:28:21;;;;;;;10.73;4.60;;;18.70;99.90;;;;;;5070566;28;20227;-75
2023/05/04 09:31:01;;;;;;;10.10;4.50;;;18.70;99.90;;;;;;5071346;28;20227;-76
2023/05/04 09:33:32;;;;;;;13.52;4.53;;;18.60;99.90;;;;;;5070913;28;20195;-74
2023/05/04 09:36:15;;;;;;;12.15;4.32;;;18.60;99.90;;;;;;5070582;28;20611;-75
2023/05/04 09:38:47;;;;;;;16.65;7.22;;;18.50;99.90;;;;;;5070344;28;20674;-75
2023/05/04 09:41:18;;;;;;;12.63;5.47;;;18.50;99.90;;;;;;5070517;28;20207;-75
2023/05/04 09:43:51;;;;;;;12.07;5.63;;;18.50;99.90;;;;;;5071207;28;20716;-75
2023/05/04 09:46:23;;;;;;;11.40;5.45;;;18.50;99.90;;;;;;5070730;28;20207;-77
2023/05/04 09:48:55;;;;;;;15.30;6.55;;;18.50;99.90;;;;;;5070989;28;20207;-75
2023/05/04 09:51:27;;;;;;;14.07;6.38;;;18.40;99.90;;;;;;5071654;28;20192;-76
2023/05/04 09:54:03;;;;;;;16.10;6.43;;;18.40;99.90;;;;;;5073864;28;20196;-76
2023/05/04 09:56:42;;;;;;;9.45;4.18;;;18.40;99.90;;;;;;5054608;28;20736;-75
2023/05/04 09:59:16;;;;;;;9.07;4.15;;;18.30;99.90;;;;;;5054102;28;20230;-75
2023/05/04 10:01:48;;;;;;;6.28;3.60;;;18.30;99.90;;;;;;5067106;28;20226;-75
2023/05/04 10:04:19;;;;;;;7.22;3.05;;;18.30;99.90;;;;;;5073731;28;20211;-74
2023/05/04 10:06:50;;;;;;;8.55;3.45;;;18.30;99.90;;;;;;5073811;28;20207;-74
2023/05/04 10:09:22;;;;;;;7.13;3.05;;;18.30;99.90;;;;;;5080431;28;20210;-74
2023/05/04 10:11:54;;;;;;;4.13;2.40;;;18.30;99.90;;;;;;5074357;28;20200;-75
2023/05/04 10:14:27;;;;;;;3.85;2.25;;;18.20;99.90;;;;;;5073921;28;20273;-74
2023/05/04 10:17:06;;;;;;;4.78;2.38;;;18.20;99.90;;;;;;5073641;28;20200;-75
2023/05/04 10:19:59;;;;;;;5.90;2.70;;;18.20;99.90;;;;;;5074277;28;20195;-75
2023/05/04 10:22:46;;;;;;;7.40;2.90;;;18.10;99.90;;;;;;5072929;28;20231;-76
2023/05/04 10:26:05;;;;;;;4.22;2.70;;;18.10;99.90;;;;;;5057086;28;20209;-75
2023/05/04 10:28:48;;;;;;;4.30;2.60;;;18.10;99.90;;;;;;5069695;28;20232;-76
2023/05/04 10:31:21;;;;;;;4.70;2.60;;;18.10;99.90;;;;;;5073370;28;20199;-76
2023/05/04 10:33:52;;;;;;;4.03;2.10;;;18.00;99.90;;;;;;5073559;28;20594;-74
2023/05/04 10:36:24;;;;;;;4.05;2.00;;;18.00;99.90;;;;;;5073930;28;20199;-75
2023/05/04 10:38:55;;;;;;;3.85;2.05;;;18.00;99.90;;;;;;5073862;28;20220;-76
2023/05/04 10:41:26;;;;;;;4.50;2.30;;;18.00;99.90;;;;;;5073533;28;20203;-77
2023/05/04 10:44:08;;;;;;;3.35;1.88;;;18.00;99.90;;;;;;5073331;28;20199;-75
2023/05/04 10:46:42;;;;;;;3.63;1.88;;;18.00;99.90;;;;;;5072960;28;20196;-75
2023/05/04 10:49:19;;;;;;;4.40;1.95;;;18.00;99.90;;;;;;5073251;28;20196;-75
2023/05/04 10:51:51;;;;;;;3.33;2.10;;;18.00;99.90;;;;;;5077682;28;20199;-75
2023/05/04 10:54:22;;;;;;;6.35;2.25;;;17.90;99.90;;;;;;5078209;28;20207;-75
2023/05/04 10:57:07;;;;;;;5.40;2.53;;;17.90;99.90;;;;;;5075056;28;20192;-76
2023/05/04 10:59:40;;;;;;;3.75;2.10;;;17.90;99.90;;;;;;5074681;28;20246;-76
2023/05/04 11:02:23;;;;;;;3.75;2.10;;;17.90;99.90;;;;;;5075047;28;20219;-75
2023/05/04 11:05:03;;;;;;;5.47;2.40;;;17.80;99.90;;;;;;5074042;28;20196;-75
2023/05/04 11:07:38;;;;;;;3.85;2.05;;;17.80;99.90;;;;;;5075797;28;20253;-76
2023/05/04 11:10:21;;;;;;;4.32;1.95;;;17.80;99.90;;;;;;5071237;28;20580;-75
2023/05/04 11:12:52;;;;;;;3.67;1.83;;;17.80;99.90;;;;;;5075986;28;20188;-75
2023/05/04 11:15:24;;;;;;;3.45;1.90;;;17.80;99.90;;;;;;5082186;28;20200;-73
2023/05/04 11:17:58;;;;;;;3.80;1.63;;;17.80;99.90;;;;;;5078637;28;20203;-75
2023/05/04 11:20:29;;;;;;;2.72;1.98;;;17.80;99.90;;;;;;5080846;28;20203;-77
2023/05/04 11:23:07;;;;;;;5.60;1.95;;;17.70;99.90;;;;;;5074411;28;20227;-75
2023/05/04 11:25:39;;;;;;;2.97;1.60;;;17.80;99.90;;;;;;5076224;28;20198;-76
2023/05/04 11:28:10;;;;;;;3.05;1.70;;;17.70;99.90;;;;;;5075535;28;20305;-74
2023/05/04 11:30:42;;;;;;;3.70;1.40;;;17.70;99.90;;;;;;5075656;28;20207;-76
2023/05/04 11:33:16;;;;;;;3.10;1.80;;;17.70;99.90;;;;;;5075115;28;20290;-75
2023/05/04 11:35:47;;;;;;;3.55;1.60;;;17.70;99.90;;;;;;5075081;28;20208;-75
2023/05/04 11:38:21;;;;;;;4.60;1.73;;;17.70;99.90;;;;;;5074293;28;20192;-75
2023/05/04 11:40:52;;;;;;;5.10;2.00;;;17.70;99.90;;;;;;5075344;28;20196;-75
2023/05/04 11:43:24;;;;;;;4.63;2.00;;;17.60;99.90;;;;;;5075359;28;20575;-76
2023/05/04 11:45:58;;;;;;;3.53;1.83;;;17.60;99.90;;;;;;5075330;28;20566;-76
2023/05/04 11:48:34;;;;;;;3.45;1.80;;;17.50;99.90;;;;;;5075589;28;20199;-77
2023/05/04 11:51:06;;;;;;;4.57;1.80;;;17.40;99.90;;;;;;5078175;28;20245;-76
2023/05/04 11:53:41;;;;;;;5.80;2.17;;;17.30;99.90;;;;;;5077558;28;20206;-76
2023/05/04 11:56:13;;;;;;;4.53;2.20;;;17.30;99.90;;;;;;5080333;28;20540;-77
2023/05/04 11:58:44;;;;;;;7.18;2.20;;;17.20;99.90;;;;;;5095109;28;20192;-77
2023/05/04 12:01:15;;;;;;;3.20;1.80;;;17.10;99.90;;;;;;5093492;28;20199;-75
2023/05/04 12:03:48;;;;;;;5.35;2.10;;;17.10;99.90;;;;;;5094497;28;20238;-77
2023/05/04 12:06:19;;;;;;;3.78;2.00;;;17.10;99.90;;;;;;5094777;28;20678;-75
2023/05/04 12:08:51;;;;;;;4.10;1.85;;;17.10;99.90;;;;;;5082947;28;20200;-75
2023/05/04 12:11:24;;;;;;;7.47;2.33;;;17.10;99.90;;;;;;5074767;28;20192;-75
2023/05/04 12:14:05;;;;;;;5.75;2.30;;;17.10;99.90;;;;;;5074784;28;20241;-77
2023/05/04 12:16:37;;;;;;;3.05;2.00;;;17.10;99.90;;;;;;5073539;28;20264;-76
2023/05/04 12:19:11;;;;;;;5.13;2.65;;;17.10;99.90;;;;;;5074459;28;20215;-76
2023/05/04 12:21:52;;;;;;;4.57;2.38;;;17.00;99.90;;;;;;5076159;28;20229;-74
2023/05/04 12:24:25;;;;;;;7.60;3.08;;;17.00;99.90;;;;;;5081670;28;20730;-77
2023/05/04 12:26:56;;;;;;;6.00;2.63;;;17.00;99.90;;;;;;5074856;28;20257;-76
2023/05/04 12:29:27;;;;;;;5.10;2.30;;;17.00;99.90;;;;;;5073711;28;20238;-76
2023/05/04 12:31:58;;;;;;;7.15;2.45;;;17.00;99.90;;;;;;5074270;28;20219;-76
2023/05/04 12:34:31;;;;;;;4.50;2.13;;;16.90;99.90;;;;;;5073985;28;20564;-76
2023/05/04 12:37:04;;;;;;;7.75;2.50;;;16.90;99.90;;;;;;5075308;28;20211;-77
2023/05/04 12:39:37;;;;;;;5.15;2.40;;;17.00;99.90;;;;;;5074778;28;20215;-76
2023/05/04 12:42:08;;;;;;;4.53;2.17;;;17.00;99.90;;;;;;5083219;28;20262;-77
2023/05/04 12:44:39;;;;;;;6.50;2.30;;;17.00;99.90;;;;;;5093678;28;20180;-76
2023/05/04 12:47:13;;;;;;;3.53;1.98;;;17.00;99.90;;;;;;5088941;28;20196;-76
2023/05/04 12:49:45;;;;;;;3.45;2.00;;;17.00;99.90;;;;;;5076982;28;20214;-77
2023/05/04 12:52:17;;;;;;;4.07;2.05;;;16.90;99.90;;;;;;5084736;28;20234;-76
2023/05/04 12:54:48;;;;;;;3.97;1.95;;;16.90;99.90;;;;;;5073432;28;20210;-77
2023/05/04 12:57:19;;;;;;;6.32;2.10;;;16.90;99.90;;;;;;5087791;28;20202;-77
2023/05/04 12:59:50;;;;;;;6.50;2.33;;;16.80;99.90;;;;;;5093546;28;20566;-76
2023/05/04 13:02:21;;;;;;;9.45;2.20;;;16.80;99.90;;;;;;5091791;28;20542;-76
2023/05/04 13:04:54;;;;;;;4.13;2.22;;;16.80;99.90;;;;;;5075686;28;20207;-77
2023/05/04 13:07:25;;;;;;;4.20;2.30;;;16.70;99.90;;;;;;5052782;28;20634;-75
2023/05/04 13:09:56;;;;;;;6.35;2.30;;;16.70;99.90;;;;;;5080021;28;20195;-75
2023/05/04 13:12:27;;;;;;;5.32;2.20;;;16.70;99.90;;;;;;5091363;28;20191;-76